sensor_id;sensor_type;location;lat;lon;timestamp;temperature;humidity
10010;DHT22;5044;48.652;9.250;2023-06-10T00:00:28;18.50;83.10
10010;DHT22;5044;48.652;9.250;2023-06-10T00:02:57;18.40;86.00
10010;DHT22;5044;48.652;9.250;2023-06-10T00:05:26;18.30;81.70
10010;DHT22;5044;48.652;9.250;2023-06-10T00:07:55;18.40;81.90
10010;DHT22;5044;48.652;9.250;2023-06-10T00:10:23;18.30;81.40
10010;DHT22;5044;48.652;9.250;2023-06-10T00:12:50;18.10;85.50
10010;DHT22;5044;48.652;9.250;2023-06-10T00:15:17;18.20;83.10
10010;DHT22;5044;48.652;9.250;2023-06-10T00:17:44;18.20;87.90
10010;DHT22;5044;48.652;9.250;2023-06-10T00:20:12;18.00;90.10
10010;DHT22;5044;48.652;9.250;2023-06-10T00:22:41;18.00;88.20
10010;DHT22;5044;48.652;9.250;2023-06-10T00:25:11;18.00;90.00
10010;DHT22;5044;48.652;9.250;2023-06-10T00:27:38;18.00;85.60
10010;DHT22;5044;48.652;9.250;2023-06-10T00:30:06;18.10;86.70
10010;DHT22;5044;48.652;9.250;2023-06-10T00:32:33;18.10;87.00
10010;DHT22;5044;48.652;9.250;2023-06-10T00:35:00;18.10;83.90
10010;DHT22;5044;48.652;9.250;2023-06-10T00:37:26;18.00;87.90
10010;DHT22;5044;48.652;9.250;2023-06-10T00:39:55;18.00;86.70
10010;DHT22;5044;48.652;9.250;2023-06-10T00:42:22;17.90;85.50
10010;DHT22;5044;48.652;9.250;2023-06-10T00:44:49;18.00;84.70
10010;DHT22;5044;48.652;9.250;2023-06-10T00:47:16;18.00;85.10
10010;DHT22;5044;48.652;9.250;2023-06-10T00:49:44;17.90;90.30
10010;DHT22;5044;48.652;9.250;2023-06-10T00:52:12;17.80;86.50
10010;DHT22;5044;48.652;9.250;2023-06-10T00:54:40;17.80;88.10
10010;DHT22;5044;48.652;9.250;2023-06-10T00:57:10;17.90;84.10
10010;DHT22;5044;48.652;9.250;2023-06-10T00:59:37;17.90;82.50
10010;DHT22;5044;48.652;9.250;2023-06-10T01:02:04;17.90;88.60
10010;DHT22;5044;48.652;9.250;2023-06-10T01:04:31;17.80;91.70
10010;DHT22;5044;48.652;9.250;2023-06-10T01:07:05;17.60;90.60
10010;DHT22;5044;48.652;9.250;2023-06-10T01:09:42;17.60;91.10
10010;DHT22;5044;48.652;9.250;2023-06-10T01:12:19;17.60;91.10
10010;DHT22;5044;48.652;9.250;2023-06-10T01:14:47;17.50;90.20
10010;DHT22;5044;48.652;9.250;2023-06-10T01:17:14;17.40;91.70
10010;DHT22;5044;48.652;9.250;2023-06-10T01:19:43;17.60;91.70
10010;DHT22;5044;48.652;9.250;2023-06-10T01:22:12;17.60;91.50
10010;DHT22;5044;48.652;9.250;2023-06-10T01:24:41;17.50;91.00
10010;DHT22;5044;48.652;9.250;2023-06-10T01:27:12;17.50;92.50
10010;DHT22;5044;48.652;9.250;2023-06-10T01:29:42;17.50;90.40
10010;DHT22;5044;48.652;9.250;2023-06-10T01:32:17;17.40;90.50
10010;DHT22;5044;48.652;9.250;2023-06-10T01:34:45;17.40;92.80
10010;DHT22;5044;48.652;9.250;2023-06-10T01:37:18;17.40;91.60
10010;DHT22;5044;48.652;9.250;2023-06-10T01:39:46;17.40;91.70
10010;DHT22;5044;48.652;9.250;2023-06-10T01:42:14;17.40;91.70
10010;DHT22;5044;48.652;9.250;2023-06-10T01:44:42;17.40;91.60
10010;DHT22;5044;48.652;9.250;2023-06-10T01:47:09;17.30;85.90
10010;DHT22;5044;48.652;9.250;2023-06-10T01:49:36;17.40;91.50
10010;DHT22;5044;48.652;9.250;2023-06-10T01:52:03;17.40;88.80
10010;DHT22;5044;48.652;9.250;2023-06-10T01:54:32;17.30;89.50
10010;DHT22;5044;48.652;9.250;2023-06-10T01:57:00;17.30;93.20
10010;DHT22;5044;48.652;9.250;2023-06-10T01:59:27;17.30;93.10
10010;DHT22;5044;48.652;9.250;2023-06-10T02:01:54;17.30;92.70
10010;DHT22;5044;48.652;9.250;2023-06-10T02:04:21;17.20;90.60
10010;DHT22;5044;48.652;9.250;2023-06-10T02:06:48;17.10;86.30
10010;DHT22;5044;48.652;9.250;2023-06-10T02:09:16;17.10;90.40
10010;DHT22;5044;48.652;9.250;2023-06-10T02:11:45;17.00;93.70
10010;DHT22;5044;48.652;9.250;2023-06-10T02:14:12;17.00;95.60
10010;DHT22;5044;48.652;9.250;2023-06-10T02:16:39;17.00;88.30
10010;DHT22;5044;48.652;9.250;2023-06-10T02:19:06;17.00;90.20
10010;DHT22;5044;48.652;9.250;2023-06-10T02:21:33;16.90;92.50
10010;DHT22;5044;48.652;9.250;2023-06-10T02:24:00;16.80;91.30
10010;DHT22;5044;48.652;9.250;2023-06-10T02:26:28;16.90;91.10
10010;DHT22;5044;48.652;9.250;2023-06-10T02:28:56;16.80;92.00
10010;DHT22;5044;48.652;9.250;2023-06-10T02:31:23;16.80;90.80
10010;DHT22;5044;48.652;9.250;2023-06-10T02:33:51;16.70;96.40
10010;DHT22;5044;48.652;9.250;2023-06-10T02:36:17;16.60;93.50
10010;DHT22;5044;48.652;9.250;2023-06-10T02:38:47;16.60;98.90
10010;DHT22;5044;48.652;9.250;2023-06-10T02:41:13;16.30;96.90
10010;DHT22;5044;48.652;9.250;2023-06-10T02:43:41;16.30;95.40
10010;DHT22;5044;48.652;9.250;2023-06-10T02:46:09;16.30;99.70
10010;DHT22;5044;48.652;9.250;2023-06-10T02:48:41;16.30;96.30
10010;DHT22;5044;48.652;9.250;2023-06-10T02:51:09;16.20;99.90
10010;DHT22;5044;48.652;9.250;2023-06-10T02:53:36;16.00;99.90
10010;DHT22;5044;48.652;9.250;2023-06-10T02:56:03;16.00;99.00
10010;DHT22;5044;48.652;9.250;2023-06-10T02:58:30;16.30;97.50
10010;DHT22;5044;48.652;9.250;2023-06-10T03:00:57;16.20;99.20
10010;DHT22;5044;48.652;9.250;2023-06-10T03:03:26;16.00;95.80
10010;DHT22;5044;48.652;9.250;2023-06-10T03:05:53;16.10;95.60
10010;DHT22;5044;48.652;9.250;2023-06-10T03:08:20;16.00;99.00
10010;DHT22;5044;48.652;9.250;2023-06-10T03:10:47;16.00;95.30
10010;DHT22;5044;48.652;9.250;2023-06-10T03:13:14;16.00;95.60
10010;DHT22;5044;48.652;9.250;2023-06-10T03:15:42;16.10;92.70
10010;DHT22;5044;48.652;9.250;2023-06-10T03:18:11;16.10;94.00
10010;DHT22;5044;48.652;9.250;2023-06-10T03:20:40;16.00;97.30
10010;DHT22;5044;48.652;9.250;2023-06-10T03:23:10;16.10;94.10
10010;DHT22;5044;48.652;9.250;2023-06-10T03:25:37;16.10;97.60
10010;DHT22;5044;48.652;9.250;2023-06-10T03:28:04;16.10;95.60
10010;DHT22;5044;48.652;9.250;2023-06-10T03:30:31;16.10;95.40
10010;DHT22;5044;48.652;9.250;2023-06-10T03:32:58;16.10;92.20
10010;DHT22;5044;48.652;9.250;2023-06-10T03:35:26;16.00;99.10
10010;DHT22;5044;48.652;9.250;2023-06-10T03:37:54;16.00;95.60
10010;DHT22;5044;48.652;9.250;2023-06-10T03:40:21;16.00;99.60
10010;DHT22;5044;48.652;9.250;2023-06-10T03:42:49;16.00;92.90
10010;DHT22;5044;48.652;9.250;2023-06-10T03:45:16;16.00;97.00
10010;DHT22;5044;48.652;9.250;2023-06-10T03:47:43;16.00;99.80
10010;DHT22;5044;48.652;9.250;2023-06-10T03:50:10;16.10;97.80
10010;DHT22;5044;48.652;9.250;2023-06-10T03:52:38;16.00;99.90
10010;DHT22;5044;48.652;9.250;2023-06-10T03:55:08;15.90;99.90
10010;DHT22;5044;48.652;9.250;2023-06-10T03:57:36;15.80;99.90
10010;DHT22;5044;48.652;9.250;2023-06-10T04:00:04;15.80;99.90
10010;DHT22;5044;48.652;9.250;2023-06-10T04:02:36;15.80;99.90
10010;DHT22;5044;48.652;9.250;2023-06-10T04:05:03;15.80;99.90
10010;DHT22;5044;48.652;9.250;2023-06-10T04:07:30;15.80;95.70
10010;DHT22;5044;48.652;9.250;2023-06-10T04:09:58;15.90;96.30
10010;DHT22;5044;48.652;9.250;2023-06-10T04:12:26;15.90;96.00
10010;DHT22;5044;48.652;9.250;2023-06-10T04:14:53;15.80;97.50
10010;DHT22;5044;48.652;9.250;2023-06-10T04:17:20;15.90;91.80
10010;DHT22;5044;48.652;9.250;2023-06-10T04:19:47;15.90;99.90
10010;DHT22;5044;48.652;9.250;2023-06-10T04:22:14;16.00;99.90
10010;DHT22;5044;48.652;9.250;2023-06-10T04:24:41;15.80;99.90
10010;DHT22;5044;48.652;9.250;2023-06-10T04:27:08;15.90;99.00
10010;DHT22;5044;48.652;9.250;2023-06-10T04:29:37;15.90;99.90
10010;DHT22;5044;48.652;9.250;2023-06-10T04:32:05;15.80;96.20
10010;DHT22;5044;48.652;9.250;2023-06-10T04:34:32;15.90;96.00
10010;DHT22;5044;48.652;9.250;2023-06-10T04:36:59;15.80;94.00
10010;DHT22;5044;48.652;9.250;2023-06-10T04:39:27;16.00;99.90
10010;DHT22;5044;48.652;9.250;2023-06-10T04:41:54;16.10;99.90
10010;DHT22;5044;48.652;9.250;2023-06-10T04:44:21;16.00;98.00
10010;DHT22;5044;48.652;9.250;2023-06-10T04:47:01;16.10;95.20
10010;DHT22;5044;48.652;9.250;2023-06-10T04:49:28;16.10;92.70
10010;DHT22;5044;48.652;9.250;2023-06-10T04:51:55;16.10;97.30
10010;DHT22;5044;48.652;9.250;2023-06-10T04:54:23;16.20;99.00
10010;DHT22;5044;48.652;9.250;2023-06-10T04:56:50;16.20;98.50
10010;DHT22;5044;48.652;9.250;2023-06-10T04:59:17;16.30;95.10
10010;DHT22;5044;48.652;9.250;2023-06-10T05:01:44;16.30;98.30
10010;DHT22;5044;48.652;9.250;2023-06-10T05:04:13;16.20;94.40
10010;DHT22;5044;48.652;9.250;2023-06-10T05:06:40;16.40;91.10
10010;DHT22;5044;48.652;9.250;2023-06-10T05:09:07;16.40;96.00
10010;DHT22;5044;48.652;9.250;2023-06-10T05:11:34;16.40;98.20
10010;DHT22;5044;48.652;9.250;2023-06-10T05:14:01;16.50;91.00
10010;DHT22;5044;48.652;9.250;2023-06-10T05:16:28;16.70;98.00
10010;DHT22;5044;48.652;9.250;2023-06-10T05:18:55;16.70;97.20
10010;DHT22;5044;48.652;9.250;2023-06-10T05:21:24;16.80;89.00
10010;DHT22;5044;48.652;9.250;2023-06-10T05:23:50;16.90;93.10
10010;DHT22;5044;48.652;9.250;2023-06-10T05:26:18;17.10;95.30
10010;DHT22;5044;48.652;9.250;2023-06-10T05:28:44;17.40;91.60
10010;DHT22;5044;48.652;9.250;2023-06-10T05:31:11;17.50;91.50
10010;DHT22;5044;48.652;9.250;2023-06-10T05:33:39;17.80;95.90
10010;DHT22;5044;48.652;9.250;2023-06-10T05:36:06;18.00;96.00
10010;DHT22;5044;48.652;9.250;2023-06-10T05:38:35;18.20;95.10
10010;DHT22;5044;48.652;9.250;2023-06-10T05:41:02;18.50;94.00
10010;DHT22;5044;48.652;9.250;2023-06-10T05:43:29;18.60;91.80
10010;DHT22;5044;48.652;9.250;2023-06-10T05:45:56;18.90;90.30
10010;DHT22;5044;48.652;9.250;2023-06-10T05:48:23;19.10;92.10
10010;DHT22;5044;48.652;9.250;2023-06-10T05:50:50;19.30;90.50
10010;DHT22;5044;48.652;9.250;2023-06-10T05:53:17;19.50;91.10
10010;DHT22;5044;48.652;9.250;2023-06-10T05:55:46;19.70;89.00
10010;DHT22;5044;48.652;9.250;2023-06-10T05:58:14;19.80;88.20
10010;DHT22;5044;48.652;9.250;2023-06-10T06:00:41;19.90;92.90
10010;DHT22;5044;48.652;9.250;2023-06-10T06:03:09;20.00;91.40
10010;DHT22;5044;48.652;9.250;2023-06-10T06:05:37;20.30;92.90
10010;DHT22;5044;48.652;9.250;2023-06-10T06:08:04;20.40;91.80
10010;DHT22;5044;48.652;9.250;2023-06-10T06:10:31;20.50;90.10
10010;DHT22;5044;48.652;9.250;2023-06-10T07:15:09;24.00;75.30
10010;DHT22;5044;48.652;9.250;2023-06-10T07:17:35;24.20;74.30
10010;DHT22;5044;48.652;9.250;2023-06-10T07:20:03;24.10;73.10
10010;DHT22;5044;48.652;9.250;2023-06-10T07:22:30;24.40;75.00
10010;DHT22;5044;48.652;9.250;2023-06-10T07:24:57;24.70;73.10
10010;DHT22;5044;48.652;9.250;2023-06-10T07:27:24;24.30;68.90
10010;DHT22;5044;48.652;9.250;2023-06-10T07:29:51;24.20;69.50
10010;DHT22;5044;48.652;9.250;2023-06-10T07:32:19;24.10;70.30
10010;DHT22;5044;48.652;9.250;2023-06-10T07:34:47;24.90;74.60
10010;DHT22;5044;48.652;9.250;2023-06-10T07:37:14;25.40;72.20
10010;DHT22;5044;48.652;9.250;2023-06-10T07:39:41;25.30;70.00
10010;DHT22;5044;48.652;9.250;2023-06-10T07:42:08;25.40;68.40
10010;DHT22;5044;48.652;9.250;2023-06-10T07:44:35;25.80;67.20
10010;DHT22;5044;48.652;9.250;2023-06-10T07:47:03;26.00;67.30
10010;DHT22;5044;48.652;9.250;2023-06-10T07:49:31;26.30;66.90
10010;DHT22;5044;48.652;9.250;2023-06-10T07:51:58;25.70;62.00
10010;DHT22;5044;48.652;9.250;2023-06-10T07:54:25;25.60;66.60
10010;DHT22;5044;48.652;9.250;2023-06-10T07:56:53;25.60;65.30
10010;DHT22;5044;48.652;9.250;2023-06-10T07:59:20;25.70;68.20
10010;DHT22;5044;48.652;9.250;2023-06-10T08:01:47;26.00;68.90
10010;DHT22;5044;48.652;9.250;2023-06-10T08:04:15;26.20;65.30
10010;DHT22;5044;48.652;9.250;2023-06-10T08:06:43;26.20;66.50
10010;DHT22;5044;48.652;9.250;2023-06-10T08:09:10;26.20;65.80
10010;DHT22;5044;48.652;9.250;2023-06-10T08:11:37;25.50;63.80
10010;DHT22;5044;48.652;9.250;2023-06-10T08:14:04;26.20;68.40
10010;DHT22;5044;48.652;9.250;2023-06-10T08:16:30;25.90;63.20
10010;DHT22;5044;48.652;9.250;2023-06-10T08:18:57;26.30;66.30
10010;DHT22;5044;48.652;9.250;2023-06-10T08:21:24;27.00;63.30
10010;DHT22;5044;48.652;9.250;2023-06-10T08:23:55;27.20;60.90
10010;DHT22;5044;48.652;9.250;2023-06-10T08:26:22;27.60;62.90
10010;DHT22;5044;48.652;9.250;2023-06-10T08:28:48;27.70;58.70
10010;DHT22;5044;48.652;9.250;2023-06-10T08:31:15;27.40;62.20
10010;DHT22;5044;48.652;9.250;2023-06-10T08:33:42;28.00;60.30
10010;DHT22;5044;48.652;9.250;2023-06-10T08:36:09;27.70;57.50
10010;DHT22;5044;48.652;9.250;2023-06-10T08:38:36;27.20;63.30
10010;DHT22;5044;48.652;9.250;2023-06-10T08:41:05;28.00;60.30
10010;DHT22;5044;48.652;9.250;2023-06-10T08:43:37;27.50;58.60
10010;DHT22;5044;48.652;9.250;2023-06-10T08:46:08;27.50;58.20
10010;DHT22;5044;48.652;9.250;2023-06-10T08:48:39;28.20;59.70
10010;DHT22;5044;48.652;9.250;2023-06-10T08:51:11;28.50;57.60
10010;DHT22;5044;48.652;9.250;2023-06-10T08:53:57;27.80;54.10
10010;DHT22;5044;48.652;9.250;2023-06-10T08:56:30;27.50;55.10
10010;DHT22;5044;48.652;9.250;2023-06-10T08:58:57;27.40;57.00
10010;DHT22;5044;48.652;9.250;2023-06-10T09:01:26;27.60;55.40
10010;DHT22;5044;48.652;9.250;2023-06-10T09:03:55;28.20;58.00
10010;DHT22;5044;48.652;9.250;2023-06-10T09:06:23;28.30;54.90
10010;DHT22;5044;48.652;9.250;2023-06-10T09:08:52;28.10;54.50
10010;DHT22;5044;48.652;9.250;2023-06-10T09:11:19;28.40;56.30
10010;DHT22;5044;48.652;9.250;2023-06-10T09:13:47;28.10;53.90
10010;DHT22;5044;48.652;9.250;2023-06-10T09:16:14;28.30;55.80
10010;DHT22;5044;48.652;9.250;2023-06-10T09:18:42;28.10;54.00
10010;DHT22;5044;48.652;9.250;2023-06-10T09:21:09;27.70;53.70
10010;DHT22;5044;48.652;9.250;2023-06-10T09:23:37;28.00;54.30
10010;DHT22;5044;48.652;9.250;2023-06-10T09:26:08;28.70;53.30
10010;DHT22;5044;48.652;9.250;2023-06-10T09:28:35;29.30;54.70
10010;DHT22;5044;48.652;9.250;2023-06-10T09:31:05;28.90;53.40
10010;DHT22;5044;48.652;9.250;2023-06-10T09:33:32;28.80;52.40
10010;DHT22;5044;48.652;9.250;2023-06-10T09:36:02;28.50;52.40
10010;DHT22;5044;48.652;9.250;2023-06-10T09:38:33;28.80;52.80
10010;DHT22;5044;48.652;9.250;2023-06-10T09:41:00;29.50;53.10
10010;DHT22;5044;48.652;9.250;2023-06-10T09:43:42;29.60;51.80
10010;DHT22;5044;48.652;9.250;2023-06-10T09:46:16;29.60;51.00
10010;DHT22;5044;48.652;9.250;2023-06-10T09:48:44;29.70;51.50
10010;DHT22;5044;48.652;9.250;2023-06-10T09:51:11;29.50;51.20
10010;DHT22;5044;48.652;9.250;2023-06-10T09:53:38;29.50;51.50
10010;DHT22;5044;48.652;9.250;2023-06-10T09:56:05;29.90;51.20
10010;DHT22;5044;48.652;9.250;2023-06-10T09:58:36;29.50;49.30
10010;DHT22;5044;48.652;9.250;2023-06-10T10:01:08;29.30;50.00
10010;DHT22;5044;48.652;9.250;2023-06-10T10:03:44;30.00;50.70
10010;DHT22;5044;48.652;9.250;2023-06-10T10:06:12;30.30;51.50
10010;DHT22;5044;48.652;9.250;2023-06-10T10:08:39;30.60;50.20
10010;DHT22;5044;48.652;9.250;2023-06-10T10:11:06;31.40;50.10
10010;DHT22;5044;48.652;9.250;2023-06-10T10:13:34;31.60;48.40
10010;DHT22;5044;48.652;9.250;2023-06-10T10:16:04;32.10;47.70
10010;DHT22;5044;48.652;9.250;2023-06-10T10:18:35;32.00;47.10
10010;DHT22;5044;48.652;9.250;2023-06-10T10:21:11;31.50;47.20
10010;DHT22;5044;48.652;9.250;2023-06-10T10:23:41;31.60;45.70
10010;DHT22;5044;48.652;9.250;2023-06-10T10:26:10;31.60;45.20
10010;DHT22;5044;48.652;9.250;2023-06-10T10:28:42;31.10;44.50
10010;DHT22;5044;48.652;9.250;2023-06-10T10:31:12;30.60;45.60
10010;DHT22;5044;48.652;9.250;2023-06-10T10:33:45;31.40;47.40
10010;DHT22;5044;48.652;9.250;2023-06-10T10:36:17;31.70;45.20
10010;DHT22;5044;48.652;9.250;2023-06-10T10:38:45;32.10;46.10
10010;DHT22;5044;48.652;9.250;2023-06-10T10:41:15;31.30;43.80
10010;DHT22;5044;48.652;9.250;2023-06-10T10:43:43;32.10;45.40
10010;DHT22;5044;48.652;9.250;2023-06-10T10:46:12;32.40;44.50
10010;DHT22;5044;48.652;9.250;2023-06-10T10:48:40;32.00;43.30
10010;DHT22;5044;48.652;9.250;2023-06-10T10:51:08;32.10;46.60
10010;DHT22;5044;48.652;9.250;2023-06-10T10:53:37;31.70;44.60
10010;DHT22;5044;48.652;9.250;2023-06-10T10:56:09;31.80;44.10
10010;DHT22;5044;48.652;9.250;2023-06-10T10:58:39;31.80;44.30
10010;DHT22;5044;48.652;9.250;2023-06-10T11:01:12;30.30;44.50
10010;DHT22;5044;48.652;9.250;2023-06-10T11:03:44;31.00;46.50
10010;DHT22;5044;48.652;9.250;2023-06-10T11:06:13;30.30;45.30
10010;DHT22;5044;48.652;9.250;2023-06-10T11:08:49;30.70;47.90
10010;DHT22;5044;48.652;9.250;2023-06-10T11:11:21;30.10;47.50
10010;DHT22;5044;48.652;9.250;2023-06-10T11:14:15;30.30;47.00
10010;DHT22;5044;48.652;9.250;2023-06-10T11:16:52;30.10;45.80
10010;DHT22;5044;48.652;9.250;2023-06-10T11:19:39;30.40;46.10
10010;DHT22;5044;48.652;9.250;2023-06-10T11:22:16;30.00;47.00
10010;DHT22;5044;48.652;9.250;2023-06-10T11:24:50;29.20;47.10
10010;DHT22;5044;48.652;9.250;2023-06-10T11:27:18;29.40;48.00
10010;DHT22;5044;48.652;9.250;2023-06-10T11:30:19;30.90;48.40
10010;DHT22;5044;48.652;9.250;2023-06-10T11:32:50;31.40;45.90
10010;DHT22;5044;48.652;9.250;2023-06-10T11:35:19;32.00;44.70
10010;DHT22;5044;48.652;9.250;2023-06-10T11:37:47;31.60;43.00
10010;DHT22;5044;48.652;9.250;2023-06-10T11:40:16;31.30;44.90
10010;DHT22;5044;48.652;9.250;2023-06-10T11:42:43;31.50;43.80
10010;DHT22;5044;48.652;9.250;2023-06-10T11:45:15;32.40;44.60
10010;DHT22;5044;48.652;9.250;2023-06-10T11:47:55;32.40;41.50
10010;DHT22;5044;48.652;9.250;2023-06-10T11:50:28;32.30;42.20
10010;DHT22;5044;48.652;9.250;2023-06-10T11:52:55;32.40;42.00
10010;DHT22;5044;48.652;9.250;2023-06-10T11:55:25;32.40;41.40
10010;DHT22;5044;48.652;9.250;2023-06-10T11:57:52;31.50;40.70
10010;DHT22;5044;48.652;9.250;2023-06-10T12:00:23;31.80;42.20
10010;DHT22;5044;48.652;9.250;2023-06-10T12:02:55;31.40;41.40
10010;DHT22;5044;48.652;9.250;2023-06-10T12:05:23;31.00;42.80
10010;DHT22;5044;48.652;9.250;2023-06-10T12:08:08;31.10;44.00
10010;DHT22;5044;48.652;9.250;2023-06-10T12:10:41;31.10;43.20
10010;DHT22;5044;48.652;9.250;2023-06-10T12:13:08;32.20;43.80
10010;DHT22;5044;48.652;9.250;2023-06-10T12:15:35;33.10;43.30
10010;DHT22;5044;48.652;9.250;2023-06-10T12:18:02;33.10;41.50
10010;DHT22;5044;48.652;9.250;2023-06-10T12:20:31;33.00;41.60
10010;DHT22;5044;48.652;9.250;2023-06-10T12:22:59;33.50;41.40
10010;DHT22;5044;48.652;9.250;2023-06-10T12:25:27;33.40;41.50
10010;DHT22;5044;48.652;9.250;2023-06-10T12:27:56;33.40;41.20
10010;DHT22;5044;48.652;9.250;2023-06-10T12:30:25;33.90;41.10
10010;DHT22;5044;48.652;9.250;2023-06-10T12:32:53;34.20;40.60
10010;DHT22;5044;48.652;9.250;2023-06-10T12:35:21;34.20;40.50
10010;DHT22;5044;48.652;9.250;2023-06-10T12:38:00;34.10;40.00
10010;DHT22;5044;48.652;9.250;2023-06-10T12:40:27;33.50;39.00
10010;DHT22;5044;48.652;9.250;2023-06-10T12:42:56;34.20;40.20
10010;DHT22;5044;48.652;9.250;2023-06-10T12:45:29;33.00;38.20
10010;DHT22;5044;48.652;9.250;2023-06-10T12:48:07;34.20;40.20
10010;DHT22;5044;48.652;9.250;2023-06-10T12:50:35;34.20;39.40
10010;DHT22;5044;48.652;9.250;2023-06-10T12:53:02;32.60;37.90
10010;DHT22;5044;48.652;9.250;2023-06-10T12:55:29;33.40;41.00
10010;DHT22;5044;48.652;9.250;2023-06-10T12:57:58;32.50;39.60
10010;DHT22;5044;48.652;9.250;2023-06-10T13:00:26;31.70;40.50
10010;DHT22;5044;48.652;9.250;2023-06-10T13:02:59;31.10;41.20
10010;DHT22;5044;48.652;9.250;2023-06-10T13:05:26;30.80;41.50
10010;DHT22;5044;48.652;9.250;2023-06-10T13:07:53;30.70;42.80
10010;DHT22;5044;48.652;9.250;2023-06-10T13:10:21;30.50;42.70
10010;DHT22;5044;48.652;9.250;2023-06-10T13:12:48;30.70;44.40
10010;DHT22;5044;48.652;9.250;2023-06-10T13:15:16;30.50;43.80
10010;DHT22;5044;48.652;9.250;2023-06-10T13:17:43;31.40;43.70
10010;DHT22;5044;48.652;9.250;2023-06-10T13:20:11;31.70;43.50
10010;DHT22;5044;48.652;9.250;2023-06-10T13:22:37;31.00;43.60
10010;DHT22;5044;48.652;9.250;2023-06-10T13:25:05;31.30;42.90
10010;DHT22;5044;48.652;9.250;2023-06-10T13:27:33;31.10;42.80
10010;DHT22;5044;48.652;9.250;2023-06-10T13:30:00;32.20;44.30
10010;DHT22;5044;48.652;9.250;2023-06-10T13:32:28;32.80;42.40
10010;DHT22;5044;48.652;9.250;2023-06-10T13:34:55;32.50;42.60
10010;DHT22;5044;48.652;9.250;2023-06-10T13:37:22;32.10;42.50
10010;DHT22;5044;48.652;9.250;2023-06-10T13:39:49;31.30;41.90
10010;DHT22;5044;48.652;9.250;2023-06-10T13:42:16;31.50;42.10
10010;DHT22;5044;48.652;9.250;2023-06-10T13:44:43;31.80;42.50
10010;DHT22;5044;48.652;9.250;2023-06-10T13:47:10;32.70;42.00
10010;DHT22;5044;48.652;9.250;2023-06-10T13:49:38;32.70;40.90
10010;DHT22;5044;48.652;9.250;2023-06-10T13:52:07;32.40;39.90
10010;DHT22;5044;48.652;9.250;2023-06-10T13:54:34;33.40;41.40
10010;DHT22;5044;48.652;9.250;2023-06-10T13:57:02;32.60;40.10
10010;DHT22;5044;48.652;9.250;2023-06-10T13:59:29;32.00;39.70
10010;DHT22;5044;48.652;9.250;2023-06-10T14:01:56;31.60;40.70
10010;DHT22;5044;48.652;9.250;2023-06-10T14:04:23;31.80;41.40
10010;DHT22;5044;48.652;9.250;2023-06-10T14:06:51;32.20;41.20
10010;DHT22;5044;48.652;9.250;2023-06-10T14:09:18;32.20;41.00
10010;DHT22;5044;48.652;9.250;2023-06-10T14:11:45;31.80;40.60
10010;DHT22;5044;48.652;9.250;2023-06-10T14:14:13;32.70;42.60
10010;DHT22;5044;48.652;9.250;2023-06-10T14:16:40;33.10;42.20
10010;DHT22;5044;48.652;9.250;2023-06-10T14:19:07;33.10;40.60
10010;DHT22;5044;48.652;9.250;2023-06-10T14:21:34;32.40;39.50
10010;DHT22;5044;48.652;9.250;2023-06-10T14:24:02;32.40;40.50
10010;DHT22;5044;48.652;9.250;2023-06-10T14:26:29;32.60;41.40
10010;DHT22;5044;48.652;9.250;2023-06-10T14:28:58;32.80;40.70
10010;DHT22;5044;48.652;9.250;2023-06-10T14:31:26;33.20;41.20
10010;DHT22;5044;48.652;9.250;2023-06-10T14:33:52;32.60;39.40
10010;DHT22;5044;48.652;9.250;2023-06-10T14:36:19;32.40;39.80
10010;DHT22;5044;48.652;9.250;2023-06-10T14:38:46;32.30;39.60
10010;DHT22;5044;48.652;9.250;2023-06-10T14:41:14;32.40;40.00
10010;DHT22;5044;48.652;9.250;2023-06-10T14:43:42;32.20;40.00
10010;DHT22;5044;48.652;9.250;2023-06-10T14:46:10;33.30;41.50
10010;DHT22;5044;48.652;9.250;2023-06-10T14:48:37;33.10;40.50
10010;DHT22;5044;48.652;9.250;2023-06-10T14:51:04;31.90;40.20
10010;DHT22;5044;48.652;9.250;2023-06-10T14:53:32;32.00;42.30
10010;DHT22;5044;48.652;9.250;2023-06-10T14:55:59;31.70;42.40
10010;DHT22;5044;48.652;9.250;2023-06-10T14:58:29;31.90;42.40
10010;DHT22;5044;48.652;9.250;2023-06-10T15:00:56;32.40;42.60
10010;DHT22;5044;48.652;9.250;2023-06-10T15:03:24;32.90;42.00
10010;DHT22;5044;48.652;9.250;2023-06-10T15:05:51;32.50;40.10
10010;DHT22;5044;48.652;9.250;2023-06-10T15:08:18;32.30;41.00
10010;DHT22;5044;48.652;9.250;2023-06-10T15:10:45;32.40;40.50
10010;DHT22;5044;48.652;9.250;2023-06-10T15:13:13;32.10;41.30
10010;DHT22;5044;48.652;9.250;2023-06-10T15:15:41;30.90;40.80
10010;DHT22;5044;48.652;9.250;2023-06-10T15:18:08;31.00;41.80
10010;DHT22;5044;48.652;9.250;2023-06-10T15:20:35;31.60;43.00
10010;DHT22;5044;48.652;9.250;2023-06-10T15:23:02;32.10;42.80
10010;DHT22;5044;48.652;9.250;2023-06-10T15:25:29;32.00;42.90
10010;DHT22;5044;48.652;9.250;2023-06-10T15:27:56;31.40;42.80
10010;DHT22;5044;48.652;9.250;2023-06-10T15:30:23;31.20;43.30
10010;DHT22;5044;48.652;9.250;2023-06-10T15:32:51;31.40;43.90
10010;DHT22;5044;48.652;9.250;2023-06-10T15:35:18;31.10;44.10
10010;DHT22;5044;48.652;9.250;2023-06-10T15:37:45;31.00;44.50
10010;DHT22;5044;48.652;9.250;2023-06-10T15:40:12;30.90;44.50
10010;DHT22;5044;48.652;9.250;2023-06-10T15:42:39;30.10;43.90
10010;DHT22;5044;48.652;9.250;2023-06-10T15:45:06;30.40;45.70
10010;DHT22;5044;48.652;9.250;2023-06-10T15:47:33;31.10;45.90
10010;DHT22;5044;48.652;9.250;2023-06-10T15:50:01;31.00;44.20
10010;DHT22;5044;48.652;9.250;2023-06-10T15:52:29;30.80;44.30
10010;DHT22;5044;48.652;9.250;2023-06-10T15:54:56;30.70;43.50
10010;DHT22;5044;48.652;9.250;2023-06-10T15:57:23;29.90;43.10
10010;DHT22;5044;48.652;9.250;2023-06-10T15:59:50;30.20;45.20
10010;DHT22;5044;48.652;9.250;2023-06-10T16:02:17;30.70;45.60
10010;DHT22;5044;48.652;9.250;2023-06-10T16:04:46;31.00;45.00
10010;DHT22;5044;48.652;9.250;2023-06-10T16:07:15;30.90;44.40
10010;DHT22;5044;48.652;9.250;2023-06-10T16:09:42;30.90;44.60
10010;DHT22;5044;48.652;9.250;2023-06-10T16:12:09;30.90;44.00
10010;DHT22;5044;48.652;9.250;2023-06-10T16:14:36;30.60;44.40
10010;DHT22;5044;48.652;9.250;2023-06-10T16:17:03;30.60;44.90
10010;DHT22;5044;48.652;9.250;2023-06-10T16:19:30;30.60;44.60
10010;DHT22;5044;48.652;9.250;2023-06-10T16:21:57;30.00;44.60
10010;DHT22;5044;48.652;9.250;2023-06-10T16:24:25;29.40;44.80
10010;DHT22;5044;48.652;9.250;2023-06-10T16:26:52;29.70;46.30
10010;DHT22;5044;48.652;9.250;2023-06-10T16:29:19;29.60;45.60
10010;DHT22;5044;48.652;9.250;2023-06-10T16:31:46;29.40;45.60
10010;DHT22;5044;48.652;9.250;2023-06-10T16:34:14;29.90;46.60
10010;DHT22;5044;48.652;9.250;2023-06-10T16:36:42;29.70;45.80
10010;DHT22;5044;48.652;9.250;2023-06-10T16:39:09;29.50;45.30
10010;DHT22;5044;48.652;9.250;2023-06-10T16:41:37;29.60;45.60
10010;DHT22;5044;48.652;9.250;2023-06-10T16:44:04;29.30;44.80
10010;DHT22;5044;48.652;9.250;2023-06-10T16:46:31;29.20;45.80
10010;DHT22;5044;48.652;9.250;2023-06-10T16:48:58;29.20;46.10
10010;DHT22;5044;48.652;9.250;2023-06-10T16:51:25;29.20;47.10
10010;DHT22;5044;48.652;9.250;2023-06-10T16:53:52;29.30;46.60